createdAt,value
2018-10-12T00:01:16.376Z,100602.41
2018-10-12T00:03:43.803Z,100596.95
2018-10-12T00:06:11.240Z,100589.39
2018-10-12T00:08:39.044Z,100577.25
2018-10-12T00:11:06.483Z,100574.64
2018-10-12T00:13:33.905Z,100580.08
2018-10-12T00:16:01.343Z,100581.02
2018-10-12T00:18:28.778Z,100583.74
2018-10-12T00:20:56.204Z,100587.23
2018-10-12T00:23:23.640Z,100585.53
2018-10-12T00:25:51.072Z,100584.41
2018-10-12T00:28:18.519Z,100580.53
2018-10-12T00:30:45.967Z,100578.28
2018-10-12T00:33:13.392Z,100564.45
2018-10-12T00:35:40.812Z,100567.48
2018-10-12T00:38:08.248Z,100565.83
2018-10-12T00:40:35.681Z,100563.31
2018-10-12T00:43:03.116Z,100565.19
2018-10-12T00:45:30.527Z,100565.20
2018-10-12T00:48:01.753Z,100576.09
2018-10-12T00:50:30.743Z,100580.88
2018-10-12T00:52:58.268Z,100585.25
2018-10-12T00:55:26.588Z,100583.52
2018-10-12T00:57:54.065Z,100594.84
2018-10-12T01:00:21.603Z,100600.55
2018-10-12T01:02:49.064Z,100604.00
2018-10-12T01:05:16.508Z,100601.84
2018-10-12T01:07:43.936Z,100607.09
2018-10-12T01:10:11.363Z,100603.58
2018-10-12T01:12:38.834Z,100605.64
2018-10-12T01:15:06.264Z,100606.91
2018-10-12T01:17:34.319Z,100602.94
2018-10-12T01:20:01.769Z,100606.75
2018-10-12T01:22:29.852Z,100606.48
2018-10-12T01:24:58.335Z,100604.72
2018-10-12T01:27:26.028Z,100599.80
2018-10-12T01:29:53.856Z,100602.77
2018-10-12T01:32:26.748Z,100607.17
2018-10-12T01:34:54.552Z,100607.45
2018-10-12T01:37:21.988Z,100613.45
2018-10-12T01:39:49.454Z,100613.87
2018-10-12T01:42:16.856Z,100620.46
2018-10-12T01:44:44.272Z,100619.66
2018-10-12T01:47:11.695Z,100619.13
2018-10-12T01:49:39.484Z,100622.08
2018-10-12T01:52:06.912Z,100627.64
2018-10-12T01:54:34.345Z,100627.15
2018-10-12T01:57:01.786Z,100634.39
2018-10-12T01:59:29.205Z,100637.62
2018-10-12T02:01:56.644Z,100633.42
2018-10-12T02:04:24.072Z,100628.20
2018-10-12T02:06:51.509Z,100634.59
2018-10-12T02:09:18.935Z,100643.92
2018-10-12T02:11:46.402Z,100650.63
2018-10-12T02:14:13.840Z,100643.13
2018-10-12T02:16:41.260Z,100649.22
2018-10-12T02:19:08.689Z,100650.10
2018-10-12T02:21:36.114Z,100647.36
2018-10-12T02:24:03.872Z,100657.45
2018-10-12T02:26:31.292Z,100650.10
2018-10-12T02:28:58.996Z,100649.59
2018-10-12T02:31:26.420Z,100655.55
2018-10-12T02:33:53.853Z,100657.00
2018-10-12T02:36:21.284Z,100656.77
2018-10-12T02:38:48.715Z,100659.47
2018-10-12T02:41:16.144Z,100658.16
2018-10-12T02:43:43.570Z,100660.25
2018-10-12T02:46:11.022Z,100662.06
2018-10-12T02:48:38.459Z,100669.27
2018-10-12T02:51:05.872Z,100676.30
2018-10-12T02:53:33.307Z,100678.84
2018-10-12T02:56:00.741Z,100688.05
2018-10-12T02:58:28.171Z,100693.82
2018-10-12T03:00:55.596Z,100698.58
2018-10-12T03:03:23.027Z,100696.23
2018-10-12T03:05:50.457Z,100704.05
2018-10-12T03:08:17.886Z,100705.66
2018-10-12T03:10:45.447Z,100710.40
2018-10-12T03:13:12.880Z,100716.28
2018-10-12T03:15:40.317Z,100722.23
2018-10-12T03:18:07.753Z,100717.12
2018-10-12T03:20:35.176Z,100713.62
2018-10-12T03:23:02.623Z,100719.88
2018-10-12T03:25:30.045Z,100712.91
2018-10-12T03:27:57.667Z,100696.88
2018-10-12T03:30:25.353Z,100698.64
2018-10-12T03:32:52.777Z,100703.02
2018-10-12T03:35:20.207Z,100714.84
2018-10-12T03:37:47.627Z,100711.59
2018-10-12T03:40:15.061Z,100704.89
2018-10-12T03:42:42.495Z,100710.04
2018-10-12T03:45:09.919Z,100703.90
2018-10-12T03:47:37.345Z,100707.89
2018-10-12T03:50:04.983Z,100713.26
2018-10-12T03:52:32.416Z,100718.55
2018-10-12T03:54:59.845Z,100729.19
2018-10-12T03:57:27.272Z,100720.23
2018-10-12T03:59:54.713Z,100724.23
2018-10-12T04:02:22.143Z,100728.60
2018-10-12T04:04:49.572Z,100729.59
2018-10-12T04:07:17.014Z,100727.89
2018-10-12T04:09:44.440Z,100735.92
2018-10-12T04:12:11.883Z,100745.03
2018-10-12T04:14:39.315Z,100742.59
2018-10-12T04:17:06.739Z,100736.64
2018-10-12T04:19:34.168Z,100740.70
2018-10-12T04:22:01.600Z,100754.03
2018-10-12T04:24:29.084Z,100752.10
2018-10-12T04:26:56.503Z,100764.02
2018-10-12T04:29:23.932Z,100770.78
2018-10-12T04:31:51.360Z,100778.59
2018-10-12T04:34:18.801Z,100772.20
2018-10-12T04:36:46.244Z,100781.83
2018-10-12T04:39:13.664Z,100781.05
2018-10-12T04:41:41.098Z,100785.78
2018-10-12T04:44:08.540Z,100793.26
2018-10-12T04:46:38.246Z,100792.27
2018-10-12T04:49:05.677Z,100786.66
2018-10-12T04:51:34.660Z,100793.26
2018-10-12T04:54:02.307Z,100798.12
2018-10-12T04:56:29.726Z,100792.85
2018-10-12T04:58:57.152Z,100785.77
2018-10-12T05:01:24.670Z,100794.24
2018-10-12T05:03:52.109Z,100794.03
2018-10-12T05:06:19.595Z,100795.39
2018-10-12T05:08:47.028Z,100798.53
2018-10-12T05:11:14.464Z,100801.49
2018-10-12T05:13:41.908Z,100803.84
2018-10-12T05:16:09.331Z,100807.64
2018-10-12T05:18:36.818Z,100816.95
2018-10-12T05:21:04.615Z,100819.45
2018-10-12T05:23:32.061Z,100827.38
2018-10-12T05:26:00.040Z,100831.64
2018-10-12T05:28:28.239Z,100827.37
2018-10-12T05:30:55.868Z,100826.59
2018-10-12T05:33:23.367Z,100829.81
2018-10-12T05:35:50.800Z,100830.67
2018-10-12T05:38:18.550Z,100827.02
2018-10-12T05:40:45.980Z,100830.03
2018-10-12T05:43:13.566Z,100834.48
2018-10-12T05:45:40.936Z,100834.23
2018-10-12T05:48:08.364Z,100838.34
2018-10-12T05:50:35.864Z,100847.97
2018-10-12T05:53:03.296Z,100849.91
2018-10-12T05:55:30.764Z,100852.14
2018-10-12T05:57:58.239Z,100851.73
2018-10-12T06:00:25.668Z,100857.09
2018-10-12T06:02:53.096Z,100856.31
2018-10-12T06:05:20.720Z,100866.84
2018-10-12T06:07:48.156Z,100873.83
2018-10-12T06:10:15.588Z,100872.06
2018-10-12T06:12:43.020Z,100877.98
2018-10-12T06:15:10.444Z,100879.06
2018-10-12T06:17:37.870Z,100877.77
2018-10-12T06:20:05.338Z,100882.30
2018-10-12T06:22:32.755Z,100878.10
2018-10-12T06:25:00.180Z,100889.46
2018-10-12T06:27:27.608Z,100884.95
2018-10-12T06:29:55.096Z,100887.51
2018-10-12T06:32:22.644Z,100893.24
2018-10-12T06:34:50.083Z,100897.38
2018-10-12T06:37:17.567Z,100893.19
2018-10-12T06:39:44.992Z,100890.20
2018-10-12T06:42:12.419Z,100891.65
2018-10-12T06:44:39.844Z,100894.85
2018-10-12T06:47:07.276Z,100895.78
2018-10-12T06:49:34.723Z,100892.41
2018-10-12T06:52:02.147Z,100910.01
2018-10-12T06:54:29.584Z,100907.98
2018-10-12T06:56:57.011Z,100908.22
2018-10-12T06:59:24.443Z,100912.25
2018-10-12T07:01:51.871Z,100912.33
2018-10-12T07:04:19.396Z,100913.02
2018-10-12T07:06:46.827Z,100916.23
2018-10-12T07:09:14.477Z,100921.11
2018-10-12T07:11:42.022Z,100914.68
2018-10-12T07:14:09.572Z,100927.07
2018-10-12T07:16:36.989Z,100920.14
2018-10-12T07:19:04.412Z,100931.16
2018-10-12T07:21:31.983Z,100926.91
2018-10-12T07:23:59.405Z,100929.28
2018-10-12T07:26:26.836Z,100922.87
2018-10-12T07:28:54.265Z,100939.64
2018-10-12T07:31:21.742Z,100941.06
2018-10-12T07:33:49.172Z,100954.58
2018-10-12T07:36:16.607Z,100949.40
2018-10-12T07:38:44.037Z,100950.69
2018-10-12T07:41:11.467Z,100940.39
2018-10-12T07:43:38.930Z,100936.49
2018-10-12T07:46:06.368Z,100941.45
2018-10-12T07:48:33.792Z,100937.23
2018-10-12T07:51:01.224Z,100936.39
2018-10-12T07:53:28.657Z,100938.60
2018-10-12T07:55:56.110Z,100941.03
2018-10-12T07:58:23.568Z,100947.17
2018-10-12T08:00:50.992Z,100962.09
2018-10-12T08:03:18.415Z,100948.64
2018-10-12T08:05:45.847Z,100958.73
2018-10-12T08:08:13.387Z,100957.48
2018-10-12T08:10:40.829Z,100964.84
2018-10-12T08:13:08.255Z,100967.58
2018-10-12T08:15:35.691Z,100980.00
2018-10-12T08:18:03.124Z,100979.08
2018-10-12T08:20:30.649Z,100978.33
2018-10-12T08:22:58.031Z,100982.37
2018-10-12T08:25:25.463Z,100980.20
2018-10-12T08:27:53.144Z,100982.83
2018-10-12T08:30:20.629Z,100976.70
2018-10-12T08:32:48.061Z,100974.95
2018-10-12T08:35:15.488Z,100975.87
2018-10-12T08:37:42.956Z,100975.02
2018-10-12T08:40:10.379Z,100978.55
2018-10-12T08:42:37.897Z,100977.70
2018-10-12T08:45:05.292Z,100982.57
2018-10-12T08:47:32.732Z,100979.49
2018-10-12T08:50:00.161Z,100978.65
2018-10-12T08:52:27.637Z,100980.83
2018-10-12T08:54:55.191Z,100988.71
2018-10-12T08:57:22.632Z,100997.06
2018-10-12T08:59:50.061Z,100993.56
2018-10-12T09:02:17.497Z,101000.99
2018-10-12T09:04:44.924Z,101001.88
2018-10-12T09:07:12.363Z,101007.14
2018-10-12T09:09:39.839Z,101004.95
2018-10-12T09:12:07.272Z,101005.83
2018-10-12T09:14:34.720Z,101004.51
2018-10-12T09:17:02.151Z,101006.68
2018-10-12T09:19:29.580Z,101015.88
2018-10-12T09:21:57.210Z,101018.02
2018-10-12T09:24:24.593Z,101022.41
2018-10-12T09:26:52.018Z,101010.97
2018-10-12T09:29:19.492Z,101013.52
2018-10-12T09:31:46.922Z,101009.22
2018-10-12T09:34:14.356Z,101005.63
2018-10-12T09:36:41.864Z,101012.19
2018-10-12T09:39:09.227Z,101011.34
2018-10-12T09:41:36.691Z,101015.64
2018-10-12T09:44:04.123Z,101021.33
2018-10-12T09:46:31.559Z,101028.77
2018-10-12T09:48:58.992Z,101008.55
2018-10-12T09:51:26.508Z,101018.64
2018-10-12T09:53:53.956Z,101027.46
2018-10-12T09:56:21.384Z,101025.23
2018-10-12T09:58:48.808Z,101021.66
2018-10-12T10:01:21.668Z,101019.34
2018-10-12T10:03:54.438Z,101029.45
2018-10-12T10:06:21.865Z,101028.05
2018-10-12T10:08:49.452Z,101028.05
2018-10-12T10:11:16.711Z,101028.96
2018-10-12T10:13:44.175Z,101024.57
2018-10-12T10:16:11.556Z,101020.11
2018-10-12T10:18:38.985Z,101016.66
2018-10-12T10:21:06.416Z,101021.40
2018-10-12T10:23:33.861Z,101023.56
2018-10-12T10:26:01.436Z,101017.71
2018-10-12T10:28:28.898Z,101021.13
2018-10-12T10:30:56.346Z,101024.08
2018-10-12T10:33:23.775Z,101023.68
2018-10-12T10:35:51.220Z,101021.56
2018-10-12T10:38:18.643Z,101021.97
2018-10-12T10:40:46.135Z,101017.56
2018-10-12T10:43:13.562Z,101010.48
2018-10-12T10:45:41.019Z,101019.56
2018-10-12T10:48:08.435Z,101012.64
2018-10-12T10:50:35.857Z,101015.12
2018-10-12T10:53:03.271Z,101010.28
2018-10-12T10:55:30.708Z,101014.27
2018-10-12T10:57:58.128Z,101010.00
2018-10-12T11:00:25.595Z,101011.84
2018-10-12T11:02:53.021Z,101015.84
2018-10-12T11:05:20.439Z,101014.05
2018-10-12T11:07:47.865Z,101013.09
2018-10-12T11:10:15.315Z,101013.53
2018-10-12T11:12:42.816Z,101005.03
2018-10-12T11:15:10.168Z,101004.94
2018-10-12T11:17:37.609Z,101004.10
2018-10-12T11:20:05.036Z,100996.97
2018-10-12T11:22:32.448Z,100989.44
2018-10-12T11:24:59.880Z,100994.63
2018-10-12T11:27:27.299Z,100993.40
2018-10-12T11:29:54.741Z,100984.20
2018-10-12T11:32:22.161Z,100981.47
2018-10-12T11:34:49.581Z,100979.62
2018-10-12T11:37:17.004Z,100985.83
2018-10-12T11:39:44.442Z,100984.80
2018-10-12T11:42:11.891Z,100978.57
2018-10-12T11:44:39.327Z,100983.97
2018-10-12T11:47:06.731Z,100971.64
2018-10-12T11:49:34.156Z,100980.34
2018-10-12T11:52:01.639Z,100978.96
2018-10-12T11:54:28.994Z,100979.41
2018-10-12T11:56:56.412Z,100971.97
2018-10-12T11:59:24.416Z,100972.74
2018-10-12T12:01:51.841Z,100974.45
2018-10-12T12:04:19.432Z,100977.53
2018-10-12T12:06:46.848Z,100972.20
2018-10-12T12:09:14.275Z,100968.67
2018-10-12T12:11:41.716Z,100969.88
2018-10-12T12:14:09.143Z,100973.02
2018-10-12T12:16:36.566Z,100969.72
2018-10-12T12:19:04.008Z,100967.41
2018-10-12T12:21:31.428Z,100965.98
2018-10-12T12:23:58.882Z,100967.79
2018-10-12T12:26:26.317Z,100965.09
2018-10-12T12:28:53.733Z,100968.56
2018-10-12T12:31:21.163Z,100974.68
2018-10-12T12:33:48.580Z,100969.50
2018-10-12T12:36:16.189Z,100955.84
2018-10-12T12:38:44.140Z,100961.52
2018-10-12T12:41:12.115Z,100957.94
2018-10-12T12:43:39.548Z,100955.34
2018-10-12T12:46:06.963Z,100962.41
2018-10-12T12:48:34.685Z,100960.69
2018-10-12T12:51:01.811Z,100961.62
2018-10-12T12:53:29.232Z,100961.69
2018-10-12T12:55:56.653Z,100955.52
2018-10-12T12:58:24.133Z,100959.93
2018-10-12T13:00:51.592Z,100961.23
2018-10-12T13:03:18.973Z,100961.19
2018-10-12T13:05:46.391Z,100955.03
2018-10-12T13:08:13.847Z,100963.83
2018-10-12T13:10:41.507Z,100960.30
2018-10-12T13:13:08.923Z,100963.34
2018-10-12T13:15:36.624Z,100964.72
2018-10-12T13:18:04.048Z,100965.20
2018-10-12T13:20:31.568Z,100964.81
2018-10-12T13:22:58.975Z,100963.44
2018-10-12T13:25:26.412Z,100966.09
2018-10-12T13:27:53.802Z,100972.27
2018-10-12T13:30:21.223Z,100967.97
2018-10-12T13:32:48.631Z,100973.30
2018-10-12T13:35:16.051Z,100974.22
2018-10-12T13:37:43.525Z,100968.13
2018-10-12T13:40:10.897Z,100972.56
2018-10-12T13:42:38.319Z,100980.94
2018-10-12T13:45:05.744Z,100977.91
2018-10-12T13:47:33.172Z,100980.59
2018-10-12T13:50:00.588Z,100982.34
2018-10-12T13:52:28.002Z,100982.36
2018-10-12T13:54:55.411Z,100996.34
2018-10-12T13:57:22.848Z,100993.45
2018-10-12T13:59:50.268Z,100991.74
2018-10-12T14:02:17.696Z,100997.81
2018-10-12T14:04:45.121Z,100994.77
2018-10-12T14:07:12.548Z,101002.64
2018-10-12T14:09:39.968Z,100996.97
2018-10-12T14:12:07.390Z,100999.13
2018-10-12T14:14:34.798Z,100999.62
2018-10-12T14:17:02.206Z,101000.14
2018-10-12T14:19:29.672Z,101006.34
2018-10-12T14:21:57.068Z,101009.78
2018-10-12T14:24:24.480Z,101007.66
2018-10-12T14:26:51.970Z,101011.16
2018-10-12T14:29:19.308Z,101010.72
2018-10-12T14:31:46.727Z,101008.12
2018-10-12T14:34:14.144Z,101012.16
2018-10-12T14:36:41.567Z,101009.48
2018-10-12T14:39:09.256Z,101015.20
2018-10-12T14:41:36.925Z,101007.72
2018-10-12T14:44:04.555Z,101009.56
2018-10-12T14:46:31.864Z,101011.84
2018-10-12T14:48:59.296Z,101011.33
2018-10-12T14:51:26.817Z,101010.89
2018-10-12T14:53:54.183Z,101008.33
2018-10-12T14:56:21.601Z,101014.05
2018-10-12T14:58:49.041Z,101017.16
2018-10-12T15:01:16.444Z,101014.12
2018-10-12T15:03:43.875Z,101019.00
2018-10-12T15:06:11.291Z,101019.91
2018-10-12T15:08:38.716Z,101023.47
2018-10-12T15:11:06.141Z,101016.50
2018-10-12T15:13:33.563Z,101015.62
2018-10-12T15:16:00.990Z,101015.69
2018-10-12T15:18:28.413Z,101012.23
2018-10-12T15:20:55.867Z,101016.19
2018-10-12T15:23:23.257Z,101017.97
2018-10-12T15:25:50.668Z,101017.59
2018-10-12T15:28:18.110Z,101018.50
2018-10-12T15:30:45.520Z,101018.55
2018-10-12T15:33:12.940Z,101022.58
2018-10-12T15:35:40.355Z,101028.75
2018-10-12T15:38:07.802Z,101028.77
2018-10-12T15:40:35.216Z,101028.83
2018-10-12T15:43:02.743Z,101030.17
2018-10-12T15:45:30.063Z,101030.20
2018-10-12T15:47:57.501Z,101039.88
2018-10-12T15:50:24.920Z,101034.16
2018-10-12T15:52:52.348Z,101039.91
2018-10-12T15:55:19.760Z,101033.81
2018-10-12T15:57:47.189Z,101039.51
2018-10-12T16:00:14.608Z,101035.57
2018-10-12T16:02:42.075Z,101030.34
2018-10-12T16:05:09.484Z,101025.10
2018-10-12T16:07:36.904Z,101026.42
2018-10-12T16:10:04.311Z,101028.20
2018-10-12T16:12:31.744Z,101030.36
2018-10-12T16:14:59.164Z,101025.99
2018-10-12T16:17:26.588Z,101030.36
2018-10-12T16:19:54.018Z,101026.84
2018-10-12T16:22:21.493Z,101036.06
2018-10-12T16:24:48.868Z,101040.87
2018-10-12T16:27:16.297Z,101043.07
2018-10-12T16:29:43.715Z,101048.33
2018-10-12T16:32:11.136Z,101052.22
2018-10-12T16:34:38.570Z,101052.22
2018-10-12T16:37:06.010Z,101059.22
2018-10-12T16:39:33.423Z,101065.78
2018-10-12T16:42:00.844Z,101063.61
2018-10-12T16:44:28.267Z,101061.40
2018-10-12T16:46:55.692Z,101062.67
2018-10-12T16:49:23.113Z,101059.11
2018-10-12T16:51:50.547Z,101065.25
2018-10-12T16:54:17.987Z,101064.32
2018-10-12T16:56:45.401Z,101069.52
2018-10-12T16:59:12.832Z,101074.80
2018-10-12T17:01:40.248Z,101080.05
2018-10-12T17:04:07.705Z,101084.39
2018-10-12T17:06:35.110Z,101086.97
2018-10-12T17:09:02.551Z,101089.16
2018-10-12T17:11:29.999Z,101091.38
2018-10-12T17:13:57.432Z,101088.74
2018-10-12T17:16:24.863Z,101093.95
2018-10-12T17:18:52.294Z,101100.44
2018-10-12T17:21:19.712Z,101094.26
2018-10-12T17:23:47.144Z,101098.59
2018-10-12T17:26:14.565Z,101102.54
2018-10-12T17:28:41.988Z,101104.77
2018-10-12T17:31:09.417Z,101113.05
2018-10-12T17:33:36.861Z,101114.77
2018-10-12T17:36:04.283Z,101122.64
2018-10-12T17:38:31.710Z,101132.20
2018-10-12T17:40:59.131Z,101136.31
2018-10-12T17:43:26.560Z,101144.92
2018-10-12T17:45:53.984Z,101144.73
2018-10-12T17:48:21.410Z,101153.19
2018-10-12T17:50:48.851Z,101148.34
2018-10-12T17:53:16.278Z,101150.91
2018-10-12T17:55:43.704Z,101153.86
2018-10-12T17:58:11.131Z,101155.41
2018-10-12T18:00:38.557Z,101150.60
2018-10-12T18:03:05.996Z,101156.02
2018-10-12T18:05:33.444Z,101155.80
2018-10-12T18:08:00.885Z,101156.08
2018-10-12T18:10:28.308Z,101167.75
2018-10-12T18:12:55.737Z,101166.50
2018-10-12T18:15:23.485Z,101169.39
2018-10-12T18:17:50.927Z,101169.70
2018-10-12T18:20:18.345Z,101165.35
2018-10-12T18:22:45.767Z,101172.85
2018-10-12T18:25:13.231Z,101174.41
2018-10-12T18:27:40.653Z,101179.87
2018-10-12T18:30:08.081Z,101182.30
2018-10-12T18:32:35.504Z,101182.69
2018-10-12T18:35:02.944Z,101194.34
2018-10-12T18:37:30.377Z,101193.41
2018-10-12T18:39:57.800Z,101197.09
2018-10-12T18:42:25.225Z,101193.13
2018-10-12T18:44:52.654Z,101197.09
2018-10-12T18:47:20.075Z,101198.13
2018-10-12T18:49:47.552Z,101195.63
2018-10-12T18:52:14.977Z,101192.73
2018-10-12T18:54:42.400Z,101198.98
2018-10-12T18:57:09.820Z,101197.88
2018-10-12T18:59:37.282Z,101187.59
2018-10-12T19:02:04.677Z,101187.43
2018-10-12T19:04:32.402Z,101186.70
2018-10-12T19:06:59.771Z,101186.75
2018-10-12T19:09:27.207Z,101183.59
2018-10-12T19:11:54.708Z,101186.75
2018-10-12T19:14:22.137Z,101188.44
2018-10-12T19:16:49.545Z,101192.28
2018-10-12T19:19:16.968Z,101197.21
2018-10-12T19:21:44.404Z,101202.83
2018-10-12T19:24:11.909Z,101204.94
2018-10-12T19:26:39.275Z,101200.42
2018-10-12T19:29:06.685Z,101205.09
2018-10-12T19:31:34.288Z,101201.28
2018-10-12T19:34:01.543Z,101203.98
2018-10-12T19:36:28.976Z,101203.70
2018-10-12T19:38:56.409Z,101209.72
2018-10-12T19:41:23.823Z,101209.67
2018-10-12T19:43:51.244Z,101213.55
2018-10-12T19:46:18.688Z,101211.12
2018-10-12T19:48:46.125Z,101210.98
2018-10-12T19:51:13.554Z,101211.36
2018-10-12T19:53:40.973Z,101211.88
2018-10-12T19:56:08.517Z,101216.77
2018-10-12T19:58:35.972Z,101212.73
2018-10-12T20:01:03.404Z,101211.84
2018-10-12T20:03:30.823Z,101222.48
2018-10-12T20:05:58.252Z,101223.28
2018-10-12T20:08:25.689Z,101217.91
2018-10-12T20:10:53.127Z,101216.59
2018-10-12T20:13:20.543Z,101221.53
2018-10-12T20:15:47.971Z,101227.02
2018-10-12T20:18:15.398Z,101217.67
2018-10-12T20:20:42.831Z,101222.53
2018-10-12T20:23:10.247Z,101223.84
2018-10-12T20:25:37.683Z,101221.76
2018-10-12T20:28:05.114Z,101218.93
2018-10-12T20:30:32.536Z,101221.19
2018-10-12T20:32:59.971Z,101217.50
2018-10-12T20:35:27.403Z,101221.76
2018-10-12T20:37:54.825Z,101222.35
2018-10-12T20:40:22.264Z,101224.08
2018-10-12T20:42:49.684Z,101220.61
2018-10-12T20:45:23.606Z,101222.84
2018-10-12T20:47:51.079Z,101220.58
2018-10-12T20:50:18.503Z,101222.19
2018-10-12T20:52:45.936Z,101232.09
2018-10-12T20:55:13.356Z,101228.23
2018-10-12T20:57:48.545Z,101219.05
2018-10-12T21:00:16.935Z,101218.27
2018-10-12T21:02:44.329Z,101215.72
2018-10-12T21:05:12.181Z,101220.45
2018-10-12T21:07:39.608Z,101222.00
2018-10-12T21:10:07.446Z,101221.95
2018-10-12T21:12:34.838Z,101222.97
2018-10-12T21:15:02.257Z,101223.72
2018-10-12T21:17:29.724Z,101220.58
2018-10-12T21:19:57.144Z,101221.88
2018-10-12T21:22:24.576Z,101217.44
2018-10-12T21:24:52.007Z,101218.51
2018-10-12T21:27:19.450Z,101213.89
2018-10-12T21:29:46.864Z,101210.81
2018-10-12T21:32:14.320Z,101213.42
2018-10-12T21:34:41.802Z,101205.83
2018-10-12T21:37:09.233Z,101209.09
2018-10-12T21:39:36.655Z,101208.61
2018-10-12T21:42:04.190Z,101210.55
2018-10-12T21:44:31.588Z,101203.43
2018-10-12T21:46:59.020Z,101207.79
2018-10-12T21:49:26.445Z,101205.29
2018-10-12T21:51:53.877Z,101204.35
2018-10-12T21:54:21.292Z,101196.22
2018-10-12T21:56:48.733Z,101195.35
2018-10-12T21:59:16.180Z,101200.98
2018-10-12T22:01:43.622Z,101195.13
2018-10-12T22:04:11.049Z,101195.80
2018-10-12T22:06:38.476Z,101193.59
2018-10-12T22:09:06.604Z,101190.98
2018-10-12T22:11:34.048Z,101188.97
2018-10-12T22:14:01.481Z,101189.13
2018-10-12T22:16:28.887Z,101188.48
2018-10-12T22:18:56.309Z,101197.59
2018-10-12T22:21:23.731Z,101191.50
2018-10-12T22:23:51.157Z,101190.36
2018-10-12T22:26:18.636Z,101187.34
2018-10-12T22:28:46.016Z,101191.41
2018-10-12T22:31:13.448Z,101190.20
2018-10-12T22:33:40.873Z,101194.22
2018-10-12T22:36:08.293Z,101194.61
2018-10-12T22:38:35.720Z,101192.50
2018-10-12T22:41:03.148Z,101193.17
2018-10-12T22:43:30.603Z,101196.59
2018-10-12T22:45:58.031Z,101191.66
2018-10-12T22:48:25.464Z,101192.29
2018-10-12T22:50:52.888Z,101191.88
2018-10-12T22:53:20.311Z,101190.64
2018-10-12T22:55:47.735Z,101192.70
2018-10-12T22:58:15.181Z,101194.81
2018-10-12T23:00:42.618Z,101192.13
2018-10-12T23:03:10.045Z,101187.16
2018-10-12T23:05:37.468Z,101195.59
2018-10-12T23:08:04.916Z,101192.56
2018-10-12T23:10:32.343Z,101197.90
2018-10-12T23:12:59.773Z,101199.95
2018-10-12T23:15:27.199Z,101196.23
2018-10-12T23:17:54.645Z,101199.98
2018-10-12T23:20:22.067Z,101192.28
2018-10-12T23:22:49.507Z,101195.42
2018-10-12T23:25:16.936Z,101197.62
2018-10-12T23:27:44.364Z,101202.00
2018-10-12T23:30:11.785Z,101207.69
2018-10-12T23:32:39.212Z,101201.30
2018-10-12T23:35:06.636Z,101207.63
2018-10-12T23:37:34.081Z,101202.48
2018-10-12T23:40:01.527Z,101207.02
2018-10-12T23:42:29.003Z,101206.10
2018-10-12T23:44:56.445Z,101200.63
2018-10-12T23:47:23.965Z,101203.86
2018-10-12T23:49:51.336Z,101203.11
2018-10-12T23:52:18.763Z,101202.36
2018-10-12T23:54:46.463Z,101206.02
2018-10-12T23:57:13.883Z,101209.20
2018-10-12T23:59:41.325Z,101204.33
